Data for 12/20/2006

Time Sea-Level Adjusted Pressure Absolute Pressure Temperature Relative Humidity Dew Point   
(mb) (inHg) (mb) (inHg) (C) (F) (%) (C) (F)
00:05 1023 30.21 852 25.16 -5.3 22.5 53 -13.3 8
00:10 1023 30.21 852 25.16 -5.4 22.3 53 -13.6 7.5
00:15 1023 30.21 852 25.16 -5.2 22.6 53 -13.4 7.8
00:20 1023 30.21 852 25.16 -5.4 22.3 54 -13.3 8.1
00:25 1023 30.21 852 25.16 -5.4 22.2 54 -13.4 7.8
00:30 1023 30.21 852 25.16 -5.3 22.4 53 -13.5 7.8
00:35 1023 30.21 852 25.16 -5.2 22.7 52 -13.6 7.5
00:40 1023 30.21 852 25.16 -4.8 23.3 51 -13.5 7.7
00:45 1023 30.21 852 25.16 -4.5 23.9 52 -12.8 8.9
00:50 1023 30.21 852 25.16 -4.9 23.2 53 -13 8.7
00:55 1023 30.21 852 25.16 -4.6 23.7 56 -12.2 10
01:00 1023 30.21 852 25.16 -4.6 23.7 53 -12.8 9
01:05 1023 30.21 852 25.16 -4.8 23.4 56 -12.2 10
01:10 1023 30.21 852 25.16 -4.6 23.7 54 -12.6 9.3
01:15 1023 30.21 852 25.16 -3.8 25.1 51 -12.6 9.4
01:20 1023 30.21 852 25.16 -4.9 23.1 57 -12.1 10.1
01:25 1023 30.21 852 25.16 -4.9 23.2 52 -13.3 8.1
01:30 1023 30.21 852 25.16 -4.8 23.3 52 -13.2 8.2
01:35 1023 30.21 852 25.16 -5.1 22.8 52 -13.5 7.7
01:40 1023 30.21 852 25.16 -4.9 23.2 51 -13.6 7.5
01:45 1023 30.21 852 25.16 -4.7 23.5 51 -13.4 7.8
01:50 1023 30.21 852 25.16 -5.2 22.7 55 -12.9 8.8
01:55 1023 30.21 852 25.16 -5.3 22.4 53 -13.4 7.9
02:00 1023 30.21 852 25.16 -5.2 22.6 54 -13.3 8.1
02:05 1023 30.21 852 25.16 -5.5 22.1 54 -13.3 8
02:10 1023 30.21 852 25.16 -5.8 21.6 56 -13.2 8.2
02:15 1023 30.21 852 25.16 -5.7 21.7 55 -13.5 7.7
02:20 1023 30.21 852 25.16 -5.6 21.8 55 -13.4 7.9
02:25 1023 30.21 852 25.16 -5.8 21.5 56 -13.2 8.2
02:30 1023 30.21 852 25.16 -6.1 21 58 -13.1 8.5
02:35 1023 30.21 852 25.16 -6.3 20.6 59 -13 8.5
02:40 1023 30.21 852 25.16 -6.2 20.9 59 -12.9 8.7
02:45 1023 30.21 852 25.16 -6.1 20.9 59 -13 8.6
02:50 1023 30.21 852 25.16 -6.1 20.9 58 -13.2 8.3
02:55 1023 30.21 852 25.16 -6 21.1 58 -13.1 8.4
03:00 1023 30.21 853 25.19 -6.5 20.2 60 -13.2 8.3
03:05 1023 30.21 853 25.19 -6.4 20.4 58 -13.4 7.9
03:10 1023 30.21 853 25.19 -6.1 21 56 -13.6 7.6
03:15 1023 30.21 853 25.19 -6 21.3 57 -13.1 8.4
03:20 1023 30.21 853 25.19 -6.3 20.6 59 -13.1 8.4
03:25 1023 30.21 853 25.19 -6.4 20.5 58 -13.3 8
03:30 1023 30.21 853 25.19 -6.1 21 58 -13.2 8.3
03:35 1023 30.21 853 25.19 -6.6 20.1 60 -13.1 8.4
03:40 1023 30.21 852 25.16 -5.5 22 56 -12.9 8.7
03:45 1023 30.21 852 25.16 -5.1 22.8 55 -12.8 9
03:50 1023 30.21 852 25.16 -5.7 21.7 57 -13 8.7
03:55 1023 30.21 852 25.16 -5.8 21.5 56 -13.3 8
04:00 1023 30.21 853 25.19 -5.7 21.7 56 -13 8.5
04:05 1023 30.21 853 25.19 -5.8 21.5 60 -12.5 9.6
04:10 1023 30.21 853 25.19 -6 21.2 59 -12.7 9.1
04:15 1023 30.21 853 25.19 -5.9 21.4 58 -12.9 8.8
04:20 1024 30.24 853 25.19 -6 21.3 59 -12.8 9
04:25 1023 30.21 853 25.19 -6.2 20.9 59 -13 8.5
04:30 1023 30.21 853 25.19 -6.1 21 59 -12.8 9
04:35 1023 30.21 853 25.19 -6.4 20.5 60 -13 8.7
04:40 1023 30.21 853 25.19 -6.4 20.4 60 -13 8.7
04:45 1023 30.21 853 25.19 -6.9 19.6 64 -12.7 9.1
04:50 1023 30.21 853 25.19 -7.2 19 65 -12.8 8.9
04:55 1023 30.21 853 25.19 -6.8 19.7 63 -12.7 9.1
05:00 1023 30.21 853 25.19 -7 19.3 66 -12.3 9.8
05:05 1023 30.21 853 25.19 -6.6 20 62 -12.7 9.1
05:10 1023 30.21 853 25.19 -6.3 20.6 62 -12.4 9.6
05:15 1023 30.21 853 25.19 -6.2 20.8 62 -12.5 9.6
05:20 1023 30.21 853 25.19 -6.6 20.2 62 -12.7 9.2
05:25 1023 30.21 853 25.19 -6.8 19.8 61 -13 8.6
05:30 1023 30.21 853 25.19 -6.5 20.3 59 -13.2 8.3
05:35 1023 30.21 853 25.19 -6.7 19.9 62 -12.9 8.7
05:40 1023 30.21 853 25.19 -7.2 19 64 -12.9 8.8
05:45 1023 30.21 853 25.19 -7.5 18.5 65 -13 8.6
05:50 1023 30.21 853 25.19 -7.7 18.1 64 -13.4 8
05:55 1024 30.24 853 25.19 -7.7 18.1 64 -13.4 7.8
06:00 1024 30.24 853 25.19 -7.5 18.5 63 -13.3 8.1
06:05 1024 30.24 853 25.19 -7.4 18.7 64 -13 8.6
06:10 1024 30.24 853 25.19 -7.8 18 66 -13.1 8.5
06:15 1024 30.24 853 25.19 -7.7 18.1 65 -13.1 8.3
06:20 1024 30.24 853 25.19 -7.7 18.2 66 -12.9 8.7
06:25 1024 30.24 853 25.19 -7.7 18.2 66 -13 8.7
06:30 1024 30.24 853 25.19 -7.7 18.1 65 -13.2 8.2
06:35 1024 30.24 853 25.19 -7.7 18.1 65 -13.2 8.3
06:40 1024 30.24 853 25.19 -7.6 18.3 65 -13.1 8.4
06:45 1024 30.24 853 25.19 -7.3 19 64 -12.9 8.7
06:50 1024 30.24 853 25.19 -7.1 19.2 64 -12.8 9
06:55 1024 30.24 853 25.19 -7.2 19.1 65 -12.8 9
07:00 1023 30.21 853 25.19 -6.9 19.5 64 -12.7 9.1
07:05 1023 30.21 853 25.19 -6.9 19.6 66 -12.2 10.1
07:10 1023 30.21 853 25.19 -7 19.3 66 -12.4 9.8
07:15 1023 30.21 853 25.19 -6.5 20.3 64 -12.3 9.9
07:20 1023 30.21 853 25.19 -6.7 20 65 -12.3 9.9
07:25 1023 30.21 853 25.19 -7.3 18.9 68 -12.3 9.9
07:30 1023 30.21 853 25.19 -7.3 18.9 68 -12.3 9.9
07:35 1023 30.21 853 25.19 -7.1 19.3 66 -12.3 9.8
07:40 1023 30.21 853 25.19 -7.6 18.3 70 -12.1 10.2
07:45 1023 30.21 853 25.19 -7.9 17.8 69 -12.7 9.2
07:50 1023 30.21 853 25.19 -8.2 17.2 70 -12.7 9.1
07:55 1023 30.21 853 25.19 -8.2 17.2 70 -12.8 8.9
08:00 1023 30.21 853 25.19 -8.2 17.3 68 -13.1 8.4
08:05 1023 30.21 853 25.19 -8.1 17.4 68 -13.1 8.5
08:10 1024 30.24 853 25.19 -8.1 17.4 68 -13.1 8.5
08:15 1024 30.24 853 25.19 -8 17.7 68 -13 8.7
08:20 1023 30.21 853 25.19 -7.6 18.3 67 -12.7 9.1
08:25 1023 30.21 853 25.19 -7.2 19.1 65 -12.7 9.1
08:30 1023 30.21 853 25.19 -6.6 20.1 62 -12.7 9.2
08:35 1023 30.21 853 25.19 -6.5 20.3 62 -12.6 9.3
08:40 1023 30.21 853 25.19 -6.6 20.1 63 -12.5 9.4
08:45 1023 30.21 853 25.19 -7.1 19.1 65 -12.6 9.3
08:50 1023 30.21 852 25.16 -7.5 18.6 66 -12.7 9.1
08:55 1023 30.21 853 25.19 -7.2 19.1 66 -12.6 9.4
09:00 1023 30.21 853 25.19 -6.8 19.8 64 -12.5 9.6
09:05 1023 30.21 853 25.19 -6.5 20.2 63 -12.5 9.5
09:10 1023 30.21 853 25.19 -6.3 20.7 62 -12.5 9.5
09:15 1024 30.24 853 25.19 -5.8 21.5 60 -12.3 9.8
09:20 1024 30.24 853 25.19 -5.5 22.1 59 -12.3 9.9
09:25 1024 30.24 853 25.19 -5.2 22.6 58 -12.3 9.9
09:30 1024 30.24 853 25.19 -4.6 23.7 55 -12.2 10
09:35 1024 30.24 853 25.19 -4.5 23.9 56 -12 10.5
09:40 1024 30.24 853 25.19 -4.7 23.6 56 -12 10.3
09:45 1024 30.24 853 25.19 -4.4 24.1 54 -12.3 9.8
09:50 1024 30.24 853 25.19 -3.9 25 53 -12.1 10.2
09:55 1024 30.24 853 25.19 -3.5 25.6 52 -12 10.4
10:00 1024 30.24 853 25.19 -3.1 26.4 51 -12 10.4
10:05 1024 30.24 853 25.19 -2.7 27.2 49 -11.9 10.6
10:10 1024 30.24 853 25.19 -2.6 27.4 48 -12 10.4
10:15 1024 30.24 853 25.19 -2.3 27.8 48 -11.8 10.7
10:20 1024 30.24 853 25.19 -2.3 27.9 50 -11.5 11.3
10:25 1024 30.24 853 25.19 -2.4 27.7 50 -11.5 11.3
10:30 1024 30.24 853 25.19 -1.9 28.6 46 -12.1 10.3
10:35 1024 30.24 853 25.19 -1.3 29.6 44 -12.1 10.3
10:40 1024 30.24 853 25.19 -1.3 29.7 46 -11.5 11.3
10:45 1023 30.21 853 25.19 -1.5 29.2 46 -11.7 11
10:50 1023 30.21 852 25.16 -1.1 30.1 44 -11.7 10.9
10:55 1023 30.21 852 25.16 -0.7 30.8 43 -11.7 10.9
11:00 1023 30.21 852 25.16 -0.4 31.2 43 -11.5 11.2
11:05 1023 30.21 852 25.16 -0.1 31.7 42 -11.7 11
11:10 1023 30.21 852 25.16 -0.3 31.4 41 -12.1 10.3
11:15 1023 30.21 852 25.16 -0.3 31.4 41 -12.1 10.3
11:20 1023 30.21 852 25.16 0 32.1 40 -12 10.4
11:25 1023 30.21 852 25.16 0.1 32.2 42 -11.3 11.6
11:30 1023 30.21 852 25.16 0.1 32.1 42 -11.5 11.3
11:35 1023 30.21 852 25.16 0.4 32.7 41 -11.3 11.7
11:40 1022 30.18 852 25.16 0.6 33.1 44 -10.4 13.3
11:45 1022 30.18 852 25.16 0.6 33 43 -10.5 13
11:50 1022 30.18 852 25.16 0.8 33.4 43 -10.4 13.3
11:55 1022 30.18 851 25.13 1 33.9 42 -10.5 13.1
12:00 1022 30.18 851 25.13 1.1 34 42 -10.4 13.4
12:05 1022 30.18 851 25.13 0.2 32.3 48 -9.5 14.9
12:10 1022 30.18 851 25.13 -0.7 30.7 48 -10.5 13.1
12:15 1022 30.18 851 25.13 0.5 32.9 45 -10.1 13.7
12:20 1022 30.18 851 25.13 0.8 33.4 43 -10.3 13.4
12:25 1022 30.18 851 25.13 0.8 33.5 43 -10.3 13.5
12:30 1022 30.18 851 25.13 0.7 33.2 45 -10 14
12:35 1022 30.18 851 25.13 0.9 33.6 43 -10.2 13.6
12:40 1022 30.18 851 25.13 1 33.9 43 -10.2 13.7
12:45 1022 30.18 851 25.13 0.8 33.4 44 -10.1 13.9
12:50 1022 30.18 851 25.13 0.3 32.5 46 -10.1 13.9
12:55 1022 30.18 851 25.13 0.5 32.9 44 -10.3 13.5
13:00 1022 30.18 851 25.13 0.8 33.4 43 -10.4 13.3
13:05 1022 30.18 851 25.13 0.8 33.5 46 -9.6 14.7
13:10 1022 30.18 851 25.13 0.2 32.4 45 -10.4 13.2
13:15 1022 30.18 851 25.13 0.2 32.3 46 -10 13.9
13:20 1021 30.15 851 25.13 0.5 32.9 46 -9.8 14.3
13:25 1021 30.15 851 25.13 0.5 32.8 43 -10.7 12.8
13:30 1021 30.15 851 25.13 0.7 33.3 42 -10.8 12.5
13:35 1021 30.15 851 25.13 0.8 33.5 44 -10.1 13.8
13:40 1021 30.15 851 25.13 1.3 34.3 43 -10.1 13.9
13:45 1021 30.15 851 25.13 1 33.9 43 -10.1 13.9
13:50 1021 30.15 851 25.13 1.1 33.9 44 -9.9 14.1
13:55 1021 30.15 851 25.13 1.5 34.7 44 -9.6 14.7
14:00 1022 30.18 851 25.13 1.7 35 44 -9.2 15.5
14:05 1021 30.15 851 25.13 1.7 35 44 -9.4 15
14:10 1021 30.15 851 25.13 0.9 33.6 45 -9.6 14.7
14:15 1021 30.15 851 25.13 1 33.8 43 -10.4 13.4
14:20 1022 30.18 851 25.13 0.7 33.2 46 -9.8 14.3
14:25 1022 30.18 851 25.13 0.7 33.3 44 -10.2 13.6
14:30 1022 30.18 851 25.13 0.5 32.8 46 -9.9 14.1
14:35 1021 30.15 851 25.13 -0.8 30.5 50 -10.1 13.8
14:40 1022 30.18 851 25.13 -1.1 30 49 -10.4 13.2
14:45 1022 30.18 851 25.13 -0.8 30.6 49 -10.3 13.5
14:50 1022 30.18 851 25.13 -1.3 29.7 52 -9.8 14.3
14:55 1022 30.18 851 25.13 -0.7 30.7 49 -10.3 13.5
15:00 1022 30.18 851 25.13 -0.1 31.8 47 -10.2 13.7
15:05 1022 30.18 851 25.13 0.1 32.2 46 -10.3 13.5
15:10 1022 30.18 851 25.13 0.1 32.2 47 -10 14.1
15:15 1022 30.18 851 25.13 0.3 32.5 46 -9.9 14.2
15:20 1022 30.18 851 25.13 0.2 32.4 48 -9.5 14.9
15:25 1022 30.18 851 25.13 0.5 32.9 47 -9.5 14.9
15:30 1021 30.15 851 25.13 0.6 33 47 -9.4 15.1
15:35 1022 30.18 851 25.13 0.5 32.9 47 -9.7 14.6
15:40 1022 30.18 851 25.13 0.4 32.7 48 -9.5 14.9
15:45 1022 30.18 851 25.13 -0.2 31.6 49 -9.7 14.5
15:50 1021 30.15 851 25.13 0.1 32.2 48 -9.7 14.6
15:55 1021 30.15 851 25.13 0.4 32.6 48 -9.5 14.8
16:00 1021 30.15 851 25.13 -0 32 49 -9.6 14.8
16:05 1022 30.18 851 25.13 0 32.1 49 -9.4 15
16:10 1021 30.15 851 25.13 0.1 32.2 49 -9.5 14.9
16:15 1021 30.15 851 25.13 0 32 49 -9.6 14.8
16:20 1021 30.15 851 25.13 -0.4 31.3 50 -9.5 15
16:25 1021 30.15 851 25.13 -0.8 30.6 50 -10 14.1
16:30 1021 30.15 850 25.1 -1.4 29.5 52 -10 14
16:35 1021 30.15 850 25.1 -1.8 28.7 55 -9.7 14.5
16:40 1021 30.15 850 25.1 -2.6 27.3 57 -10 14
16:45 1021 30.15 850 25.1 -2.9 26.8 59 -9.8 14.3
16:50 1021 30.15 850 25.1 -3 26.7 59 -9.9 14.2
16:55 1021 30.15 850 25.1 -2.8 26.9 59 -9.8 14.4
17:00 1021 30.15 850 25.1 -2.7 27.2 58 -9.8 14.4
17:05 1021 30.15 850 25.1 -2.8 27 59 -9.7 14.6
17:10 1021 30.15 850 25.1 -2.9 26.7 59 -9.9 14.3
17:15 1021 30.15 850 25.1 -3.1 26.5 60 -9.8 14.3
17:20 1021 30.15 850 25.1 -3.3 26.1 60 -9.9 14.2
17:25 1021 30.15 851 25.13 -3.4 25.9 61 -9.9 14.2
17:30 1021 30.15 850 25.1 -3.5 25.7 61 -9.9 14.1
17:35 1021 30.15 850 25.1 -3.7 25.4 62 -10 14
17:40 1021 30.15 850 25.1 -3.7 25.4 62 -9.9 14.1
17:45 1021 30.15 850 25.1 -4 24.9 63 -10 13.9
17:50 1021 30.15 850 25.1 -4.2 24.4 63 -10.2 13.6
17:55 1021 30.15 850 25.1 -4.4 24.1 64 -10.3 13.5
18:00 1021 30.15 850 25.1 -4.5 23.9 64 -10.3 13.4
18:05 1021 30.15 850 25.1 -4.6 23.7 64 -10.4 13.3
18:10 1021 30.15 850 25.1 -4.6 23.7 64 -10.4 13.2
18:15 1021 30.15 850 25.1 -4.4 24.1 63 -10.5 13.1
18:20 1021 30.15 850 25.1 -4.1 24.6 62 -10.3 13.5
18:25 1021 30.15 850 25.1 -4 24.8 62 -10.2 13.7
18:30 1021 30.15 850 25.1 -4.2 24.4 63 -10.3 13.5
18:35 1021 30.15 850 25.1 -4.4 24 64 -10.3 13.4
18:40 1021 30.15 850 25.1 -4.9 23.1 66 -10.4 13.2
18:45 1021 30.15 850 25.1 -5.3 22.5 66 -10.6 12.9
18:50 1021 30.15 850 25.1 -5.2 22.6 65 -10.8 12.5
18:55 1021 30.15 850 25.1 -5.2 22.6 65 -10.7 12.7
19:00 1021 30.15 850 25.1 -5.3 22.4 66 -10.8 12.6
19:05 1021 30.15 850 25.1 -5.4 22.3 66 -10.9 12.4
19:10 1021 30.15 850 25.1 -5.4 22.3 66 -10.8 12.6
19:15 1021 30.15 850 25.1 -5.3 22.4 66 -10.7 12.7
19:20 1021 30.15 850 25.1 -5.2 22.6 66 -10.7 12.8
19:25 1021 30.15 850 25.1 -5.1 22.8 65 -10.7 12.7
19:30 1021 30.15 850 25.1 -5 23 65 -10.7 12.8
19:35 1021 30.15 850 25.1 -5.1 22.8 65 -10.7 12.8
19:40 1021 30.15 850 25.1 -4.9 23.2 64 -10.7 12.8
19:45 1021 30.15 850 25.1 -5 23 64 -10.7 12.7
19:50 1021 30.15 850 25.1 -5.3 22.5 66 -10.8 12.6
19:55 1021 30.15 850 25.1 -5.1 22.8 65 -10.7 12.8
20:00 1021 30.15 850 25.1 -4.9 23.1 65 -10.6 13
20:05 1021 30.15 850 25.1 -5.1 22.8 66 -10.6 12.9
20:10 1021 30.15 850 25.1 -5.5 22.1 67 -10.7 12.7
20:15 1021 30.15 850 25.1 -5.9 21.4 68 -10.8 12.5
20:20 1021 30.15 850 25.1 -6.1 21 69 -10.9 12.4
20:25 1021 30.15 850 25.1 -6.2 20.9 69 -10.9 12.3
20:30 1021 30.15 850 25.1 -6.2 20.8 69 -10.9 12.3
20:35 1021 30.15 850 25.1 -6.5 20.3 69 -11.2 11.8
20:40 1021 30.15 850 25.1 -6.4 20.5 69 -11.2 11.8
20:45 1021 30.15 850 25.1 -6.4 20.4 70 -11.1 12.1
20:50 1021 30.15 850 25.1 -6.6 20.1 70 -11.3 11.7
20:55 1021 30.15 850 25.1 -6.5 20.2 69 -11.2 11.8
21:00 1021 30.15 850 25.1 -6.3 20.7 68 -11.2 11.8
21:05 1021 30.15 850 25.1 -6.1 21 67 -11.2 11.8
21:10 1021 30.15 850 25.1 -5.8 21.6 66 -11.2 11.8
21:15 1021 30.15 850 25.1 -5.5 22.1 65 -11 12.1
21:20 1021 30.15 850 25.1 -5.2 22.6 64 -11 12.1
21:25 1021 30.15 850 25.1 -4.9 23.1 63 -11 12.2
21:30 1021 30.15 850 25.1 -4.7 23.5 62 -11 12.2
21:35 1021 30.15 850 25.1 -4.8 23.3 62 -11 12.1
21:40 1021 30.15 850 25.1 -5 23 62 -11.2 11.8
21:45 1021 30.15 850 25.1 -5.2 22.7 62 -11.4 11.6
21:50 1021 30.15 850 25.1 -5.6 21.9 64 -11.4 11.4
21:55 1021 30.15 850 25.1 -6 21.3 65 -11.5 11.4
22:00 1021 30.15 850 25.1 -6.1 21 66 -11.5 11.2
22:05 1021 30.15 850 25.1 -5.6 21.9 64 -11.5 11.4
22:10 1021 30.15 850 25.1 -5.2 22.6 62 -11.5 11.4
22:15 1021 30.15 850 25.1 -4.8 23.4 60 -11.3 11.7
22:20 1021 30.15 850 25.1 -4.7 23.6 60 -11.3 11.6
22:25 1021 30.15 850 25.1 -4.9 23.2 61 -11.4 11.5
22:30 1021 30.15 850 25.1 -5.5 22 62 -11.7 10.9
22:35 1021 30.15 850 25.1 -5.5 22 62 -11.8 10.8
22:40 1021 30.15 850 25.1 -5.5 22.1 62 -11.7 11
22:45 1021 30.15 850 25.1 -5.6 21.9 62 -11.9 10.6
22:50 1021 30.15 850 25.1 -5.8 21.5 63 -11.8 10.8
22:55 1021 30.15 850 25.1 -5.8 21.6 62 -12 10.4
23:00 1021 30.15 850 25.1 -5.5 22.1 62 -11.7 11
23:05 1021 30.15 850 25.1 -5.8 21.5 63 -11.7 10.9
23:10 1021 30.15 850 25.1 -5.8 21.5 62 -11.9 10.6
23:15 1021 30.15 850 25.1 -5.9 21.3 63 -11.9 10.6
23:20 1021 30.15 850 25.1 -5.9 21.4 63 -11.8 10.8
23:25 1021 30.15 850 25.1 -5.7 21.7 61 -12.1 10.2
23:30 1021 30.15 850 25.1 -6.2 20.8 63 -12.2 10
23:35 1021 30.15 850 25.1 -6.4 20.5 65 -12 10.4
23:40 1021 30.15 850 25.1 -6.7 20 66 -12 10.5
23:45 1021 30.15 850 25.1 -6.2 20.8 64 -12 10.3
23:50 1021 30.15 850 25.1 -5.9 21.4 62 -12.1 10.1
23:55 1021 30.15 850 25.1 -6.3 20.7 64 -12 10.4
24:00 1021 30.15 850 25.1 -6.4 20.5 64 -12.1 10.2